sensor_id;sensor_type;location;lat;lon;timestamp;pressure;altitude;pressure_sealevel;temperature;humidity
79589;BME280;69067;51.930;4.492;2023-07-13T00:00:06;101303.84;;;27.57;37.87
79589;BME280;69067;51.930;4.492;2023-07-13T00:02:35;101299.63;;;27.55;38.09
79589;BME280;69067;51.930;4.492;2023-07-13T00:05:08;101293.94;;;27.56;38.45
79589;BME280;69067;51.930;4.492;2023-07-13T00:07:35;101298.94;;;27.59;38.27
79589;BME280;69067;51.930;4.492;2023-07-13T00:10:03;101301.31;;;27.56;38.64
79589;BME280;69067;51.930;4.492;2023-07-13T00:12:35;101293.94;;;27.56;38.96
79589;BME280;69067;51.930;4.492;2023-07-13T00:15:06;101289.31;;;27.57;38.88
79589;BME280;69067;51.930;4.492;2023-07-13T00:17:35;101295.78;;;27.62;38.64
79589;BME280;69067;51.930;4.492;2023-07-13T00:20:04;101296.84;;;27.61;39.00
79589;BME280;69067;51.930;4.492;2023-07-13T00:22:31;101300.41;;;27.62;38.56
79589;BME280;69067;51.930;4.492;2023-07-13T00:24:56;101301.47;;;27.61;38.57
79589;BME280;69067;51.930;4.492;2023-07-13T00:27:23;101300.41;;;27.62;38.69
79589;BME280;69067;51.930;4.492;2023-07-13T00:29:52;101308.41;;;27.63;38.10
79589;BME280;69067;51.930;4.492;2023-07-13T00:32:18;101315.56;;;27.64;38.84
79589;BME280;69067;51.930;4.492;2023-07-13T00:34:44;101310.94;;;27.65;39.01
79589;BME280;69067;51.930;4.492;2023-07-13T00:37:10;101304.41;;;27.66;38.58
79589;BME280;69067;51.930;4.492;2023-07-13T00:39:36;101302.47;;;27.66;38.97
79589;BME280;69067;51.930;4.492;2023-07-13T00:42:03;101298.31;;;27.64;38.27
79589;BME280;69067;51.930;4.492;2023-07-13T00:44:30;101298.50;;;27.62;38.33
79589;BME280;69067;51.930;4.492;2023-07-13T00:46:56;101291.59;;;27.60;38.74
79589;BME280;69067;51.930;4.492;2023-07-13T00:49:27;101307.13;;;27.66;38.57
79589;BME280;69067;51.930;4.492;2023-07-13T00:52:07;101306.94;;;27.61;38.82
79589;BME280;69067;51.930;4.492;2023-07-13T00:54:41;101303.38;;;27.60;39.16
79589;BME280;69067;51.930;4.492;2023-07-13T00:57:13;101304.63;;;27.64;38.71
79589;BME280;69067;51.930;4.492;2023-07-13T00:59:46;101300.63;;;27.60;39.32
79589;BME280;69067;51.930;4.492;2023-07-13T01:02:14;101290.16;;;27.57;39.24
79589;BME280;69067;51.930;4.492;2023-07-13T01:04:40;101299.41;;;27.56;38.90
79589;BME280;69067;51.930;4.492;2023-07-13T01:07:08;101302.78;;;27.58;39.36
79589;BME280;69067;51.930;4.492;2023-07-13T01:09:34;101302.78;;;27.58;39.01
79589;BME280;69067;51.930;4.492;2023-07-13T01:12:00;101311.34;;;27.62;39.20
79589;BME280;69067;51.930;4.492;2023-07-13T01:14:26;101305.66;;;27.63;39.34
79589;BME280;69067;51.930;4.492;2023-07-13T01:16:53;101315.38;;;27.59;38.99
79589;BME280;69067;51.930;4.492;2023-07-13T01:19:39;101320.03;;;27.59;39.40
79589;BME280;69067;51.930;4.492;2023-07-13T01:24:42;101324.66;;;27.58;39.33
79589;BME280;69067;51.930;4.492;2023-07-13T01:27:12;101331.34;;;27.62;39.04
79589;BME280;69067;51.930;4.492;2023-07-13T01:29:41;101329.66;;;27.61;38.91
79589;BME280;69067;51.930;4.492;2023-07-13T01:32:14;101328.00;;;27.60;39.06
79589;BME280;69067;51.930;4.492;2023-07-13T01:34:47;101331.78;;;27.59;39.29
79589;BME280;69067;51.930;4.492;2023-07-13T01:37:12;101334.72;;;27.64;39.55
79589;BME280;69067;51.930;4.492;2023-07-13T01:39:39;101320.47;;;27.56;39.47
79589;BME280;69067;51.930;4.492;2023-07-13T01:42:05;101327.16;;;27.60;39.22
79589;BME280;69067;51.930;4.492;2023-07-13T01:44:31;101325.09;;;27.55;39.42
79589;BME280;69067;51.930;4.492;2023-07-13T01:46:57;101324.03;;;27.56;39.30
79589;BME280;69067;51.930;4.492;2023-07-13T01:49:23;101323.41;;;27.54;39.12
79589;BME280;69067;51.930;4.492;2023-07-13T01:51:49;101336.19;;;27.60;39.22
79589;BME280;69067;51.930;4.492;2023-07-13T01:54:15;101332.88;;;27.58;39.87
79589;BME280;69067;51.930;4.492;2023-07-13T01:56:41;101331.19;;;27.57;39.25
79589;BME280;69067;51.930;4.492;2023-07-13T01:59:08;101333.53;;;27.54;39.47
79589;BME280;69067;51.930;4.492;2023-07-13T02:01:35;101333.09;;;27.57;39.08
79589;BME280;69067;51.930;4.492;2023-07-13T02:04:00;101338.50;;;27.63;39.08
79589;BME280;69067;51.930;4.492;2023-07-13T02:06:27;101337.03;;;27.61;39.16
79589;BME280;69067;51.930;4.492;2023-07-13T02:08:53;101342.28;;;27.62;39.38
79589;BME280;69067;51.930;4.492;2023-07-13T02:11:19;101336.81;;;27.62;39.84
79589;BME280;69067;51.930;4.492;2023-07-13T02:13:44;101336.66;;;27.57;39.01
79589;BME280;69067;51.930;4.492;2023-07-13T02:16:10;101328.03;;;27.54;39.04
79589;BME280;69067;51.930;4.492;2023-07-13T02:18:36;101338.09;;;27.60;39.25
79589;BME280;69067;51.930;4.492;2023-07-13T02:21:03;101337.72;;;27.56;39.54
79589;BME280;69067;51.930;4.492;2023-07-13T02:23:29;101338.56;;;27.57;38.98
79589;BME280;69067;51.930;4.492;2023-07-13T02:25:57;101343.56;;;27.60;39.29
79589;BME280;69067;51.930;4.492;2023-07-13T02:28:23;101336.66;;;27.57;39.23
79589;BME280;69067;51.930;4.492;2023-07-13T02:30:49;101331.84;;;27.53;39.00
79589;BME280;69067;51.930;4.492;2023-07-13T02:33:15;101334.34;;;27.54;39.12
79589;BME280;69067;51.930;4.492;2023-07-13T02:35:41;101339.63;;;27.56;38.92
79589;BME280;69067;51.930;4.492;2023-07-13T02:38:07;101341.09;;;27.58;39.31
79589;BME280;69067;51.930;4.492;2023-07-13T02:40:34;101342.34;;;27.56;39.17
79589;BME280;69067;51.930;4.492;2023-07-13T02:43:01;101333.09;;;27.57;38.72
79589;BME280;69067;51.930;4.492;2023-07-13T02:45:29;101332.69;;;27.53;38.69
79589;BME280;69067;51.930;4.492;2023-07-13T02:47:55;101342.34;;;27.56;39.06
79589;BME280;69067;51.930;4.492;2023-07-13T02:50:20;101334.34;;;27.54;39.38
79589;BME280;69067;51.930;4.492;2023-07-13T02:52:46;101328.28;;;27.52;39.79
79589;BME280;69067;51.930;4.492;2023-07-13T02:55:12;101334.16;;;27.49;39.45
79589;BME280;69067;51.930;4.492;2023-07-13T02:57:38;101343.19;;;27.56;39.54
79589;BME280;69067;51.930;4.492;2023-07-13T03:00:04;101347.19;;;27.54;39.82
79589;BME280;69067;51.930;4.492;2023-07-13T03:02:31;101348.66;;;27.56;39.34
79589;BME280;69067;51.930;4.492;2023-07-13T03:04:58;101344.25;;;27.55;39.10
79589;BME280;69067;51.930;4.492;2023-07-13T03:07:24;101346.56;;;27.58;39.61
79589;BME280;69067;51.930;4.492;2023-07-13T03:09:57;101352.91;;;27.52;39.42
79589;BME280;69067;51.930;4.492;2023-07-13T03:12:23;101344.47;;;27.54;39.35
79589;BME280;69067;51.930;4.492;2023-07-13T03:14:50;101343.63;;;27.53;39.04
79589;BME280;69067;51.930;4.492;2023-07-13T03:17:16;101345.53;;;27.53;39.84
79589;BME280;69067;51.930;4.492;2023-07-13T03:19:42;101329.94;;;27.53;39.14
79589;BME280;69067;51.930;4.492;2023-07-13T03:22:09;101332.69;;;27.47;39.33
79589;BME280;69067;51.930;4.492;2023-07-13T03:24:35;101345.31;;;27.48;39.40
79589;BME280;69067;51.930;4.492;2023-07-13T03:27:04;101340.47;;;27.50;39.76
79589;BME280;69067;51.930;4.492;2023-07-13T03:29:31;101346.16;;;27.48;39.90
79589;BME280;69067;51.930;4.492;2023-07-13T03:31:57;101344.06;;;27.50;39.41
79589;BME280;69067;51.930;4.492;2023-07-13T03:34:22;101349.31;;;27.52;39.20
79589;BME280;69067;51.930;4.492;2023-07-13T03:36:48;101355.00;;;27.50;40.08
79589;BME280;69067;51.930;4.492;2023-07-13T03:39:14;101344.72;;;27.52;39.42
79589;BME280;69067;51.930;4.492;2023-07-13T03:41:40;101340.69;;;27.48;39.63
79589;BME280;69067;51.930;4.492;2023-07-13T03:44:06;101351.78;;;27.60;39.18
79589;BME280;69067;51.930;4.492;2023-07-13T03:46:32;101355.81;;;27.57;39.95
79589;BME280;69067;51.930;4.492;2023-07-13T03:48:59;101357.94;;;27.55;39.17
79589;BME280;69067;51.930;4.492;2023-07-13T03:51:26;101361.06;;;27.59;38.80
79589;BME280;69067;51.930;4.492;2023-07-13T03:53:52;101363.84;;;27.52;40.23
79589;BME280;69067;51.930;4.492;2023-07-13T03:56:19;101354.59;;;27.47;39.68
79589;BME280;69067;51.930;4.492;2023-07-13T03:58:47;101363.00;;;27.52;40.02
79589;BME280;69067;51.930;4.492;2023-07-13T04:01:16;101365.53;;;27.47;39.35
79589;BME280;69067;51.930;4.492;2023-07-13T04:03:43;101366.56;;;27.45;39.79
79589;BME280;69067;51.930;4.492;2023-07-13T04:06:21;101365.50;;;27.53;40.00
79589;BME280;69067;51.930;4.492;2023-07-13T04:08:52;101369.09;;;27.47;39.73
79589;BME280;69067;51.930;4.492;2023-07-13T04:11:21;101370.41;;;27.44;39.58
79589;BME280;69067;51.930;4.492;2023-07-13T04:13:49;101374.16;;;27.50;39.66
79589;BME280;69067;51.930;4.492;2023-07-13T04:16:17;101376.47;;;27.47;39.65
79589;BME280;69067;51.930;4.492;2023-07-13T04:18:45;101376.03;;;27.50;39.39
79589;BME280;69067;51.930;4.492;2023-07-13T04:21:12;101381.72;;;27.48;39.63
79589;BME280;69067;51.930;4.492;2023-07-13T04:23:39;101376.72;;;27.45;39.66
79589;BME280;69067;51.930;4.492;2023-07-13T04:26:06;101379.00;;;27.48;39.72
79589;BME280;69067;51.930;4.492;2023-07-13T04:28:33;101379.84;;;27.49;40.30
79589;BME280;69067;51.930;4.492;2023-07-13T04:31:00;101366.00;;;27.43;40.28
79589;BME280;69067;51.930;4.492;2023-07-13T04:33:27;101384.25;;;27.50;40.10
79589;BME280;69067;51.930;4.492;2023-07-13T04:35:55;101395.59;;;27.53;39.92
79589;BME280;69067;51.930;4.492;2023-07-13T04:38:27;101391.41;;;27.51;39.98
79589;BME280;69067;51.930;4.492;2023-07-13T04:41:00;101394.53;;;27.54;40.61
79589;BME280;69067;51.930;4.492;2023-07-13T04:43:27;101399.19;;;27.54;40.20
79589;BME280;69067;51.930;4.492;2023-07-13T04:45:54;101383.81;;;27.53;40.19
79589;BME280;69067;51.930;4.492;2023-07-13T04:48:21;101391.81;;;27.54;40.42
79589;BME280;69067;51.930;4.492;2023-07-13T04:50:53;101391.59;;;27.56;40.51
79589;BME280;69067;51.930;4.492;2023-07-13T04:53:20;101395.81;;;27.52;40.77
79589;BME280;69067;51.930;4.492;2023-07-13T04:55:46;101393.28;;;27.50;40.32
79589;BME280;69067;51.930;4.492;2023-07-13T04:58:12;101391.81;;;27.48;40.39
79589;BME280;69067;51.930;4.492;2023-07-13T05:00:38;101401.28;;;27.52;40.40
79589;BME280;69067;51.930;4.492;2023-07-13T05:03:04;101396.22;;;27.55;39.92
79589;BME280;69067;51.930;4.492;2023-07-13T05:05:31;101402.16;;;27.52;40.63
79589;BME280;69067;51.930;4.492;2023-07-13T05:07:57;101407.38;;;27.54;40.16
79589;BME280;69067;51.930;4.492;2023-07-13T05:10:23;101409.06;;;27.55;40.06
79589;BME280;69067;51.930;4.492;2023-07-13T05:12:50;101406.97;;;27.57;40.12
79589;BME280;69067;51.930;4.492;2023-07-13T05:15:16;101400.44;;;27.51;40.07
79589;BME280;69067;51.930;4.492;2023-07-13T05:17:47;101409.28;;;27.47;40.82
79589;BME280;69067;51.930;4.492;2023-07-13T05:20:14;101412.00;;;27.53;40.56
79589;BME280;69067;51.930;4.492;2023-07-13T05:22:41;101409.50;;;27.52;39.87
79589;BME280;69067;51.930;4.492;2023-07-13T05:25:08;101412.66;;;27.55;40.35
79589;BME280;69067;51.930;4.492;2023-07-13T05:27:36;101418.56;;;27.52;40.40
79589;BME280;69067;51.930;4.492;2023-07-13T05:30:03;101418.56;;;27.52;40.35
79589;BME280;69067;51.930;4.492;2023-07-13T05:32:29;101424.63;;;27.54;40.12
79589;BME280;69067;51.930;4.492;2023-07-13T05:34:55;101432.63;;;27.56;41.25
79589;BME280;69067;51.930;4.492;2023-07-13T05:37:21;101433.06;;;27.53;40.49
79589;BME280;69067;51.930;4.492;2023-07-13T05:39:47;101428.22;;;27.48;40.89
79589;BME280;69067;51.930;4.492;2023-07-13T05:42:13;101436.63;;;27.53;41.23
79589;BME280;69067;51.930;4.492;2023-07-13T05:44:40;101440.00;;;27.49;40.42
79589;BME280;69067;51.930;4.492;2023-07-13T05:47:06;101447.16;;;27.56;40.82
79589;BME280;69067;51.930;4.492;2023-07-13T05:49:32;101459.78;;;27.57;40.47
79589;BME280;69067;51.930;4.492;2023-07-13T05:51:58;101438.78;;;27.44;40.25
79589;BME280;69067;51.930;4.492;2023-07-13T05:54:23;101446.94;;;27.51;40.41
79589;BME280;69067;51.930;4.492;2023-07-13T05:56:49;101450.53;;;27.52;40.46
79589;BME280;69067;51.930;4.492;2023-07-13T05:59:15;101455.59;;;27.48;40.43
79589;BME280;69067;51.930;4.492;2023-07-13T06:01:41;101450.97;;;27.49;40.80
79589;BME280;69067;51.930;4.492;2023-07-13T06:04:07;101444.84;;;27.53;40.46
79589;BME280;69067;51.930;4.492;2023-07-13T06:06:33;101461.03;;;27.55;40.48
79589;BME280;69067;51.930;4.492;2023-07-13T06:08:59;101455.38;;;27.50;40.71
79589;BME280;69067;51.930;4.492;2023-07-13T06:11:26;101464.78;;;27.60;40.20
79589;BME280;69067;51.930;4.492;2023-07-13T06:13:53;101458.94;;;27.50;40.91
79589;BME280;69067;51.930;4.492;2023-07-13T06:16:19;101468.63;;;27.53;40.78
79589;BME280;69067;51.930;4.492;2023-07-13T06:18:46;101474.94;;;27.53;40.54
79589;BME280;69067;51.930;4.492;2023-07-13T06:21:20;101479.38;;;27.48;40.03
79589;BME280;69067;51.930;4.492;2023-07-13T06:23:49;101482.31;;;27.46;40.75
79589;BME280;69067;51.930;4.492;2023-07-13T06:26:18;101480.63;;;27.58;40.59
79589;BME280;69067;51.930;4.492;2023-07-13T06:28:45;101472.84;;;27.49;40.10
79589;BME280;69067;51.930;4.492;2023-07-13T06:31:13;101472.63;;;27.50;39.84
79589;BME280;69067;51.930;4.492;2023-07-13T06:33:40;101468.63;;;27.46;40.06
79589;BME280;69067;51.930;4.492;2023-07-13T06:36:08;101478.75;;;27.52;40.54
79589;BME280;69067;51.930;4.492;2023-07-13T06:38:34;101480.78;;;27.63;39.50
79589;BME280;69067;51.930;4.492;2023-07-13T06:41:00;101481.88;;;27.56;40.02
79589;BME280;69067;51.930;4.492;2023-07-13T06:43:26;101478.53;;;27.47;40.69
79589;BME280;69067;51.930;4.492;2023-07-13T06:45:55;101478.09;;;27.50;40.38
79589;BME280;69067;51.930;4.492;2023-07-13T06:48:21;101476.00;;;27.45;40.15
79589;BME280;69067;51.930;4.492;2023-07-13T06:50:49;101480.00;;;27.50;40.19
79589;BME280;69067;51.930;4.492;2023-07-13T06:53:15;101489.25;;;27.49;39.96
79589;BME280;69067;51.930;4.492;2023-07-13T06:55:43;101491.78;;;27.50;40.03
79589;BME280;69067;51.930;4.492;2023-07-13T06:58:10;101498.31;;;27.49;40.36
79589;BME280;69067;51.930;4.492;2023-07-13T07:00:36;101483.78;;;27.49;40.03
79589;BME280;69067;51.930;4.492;2023-07-13T07:03:02;101484.44;;;27.44;40.82
79589;BME280;69067;51.930;4.492;2023-07-13T07:05:27;101497.28;;;27.43;40.46
79589;BME280;69067;51.930;4.492;2023-07-13T07:07:55;101498.13;;;27.44;40.43
79589;BME280;69067;51.930;4.492;2023-07-13T07:10:21;101499.81;;;27.45;40.89
79589;BME280;69067;51.930;4.492;2023-07-13T07:12:47;101499.00;;;27.38;40.82
79589;BME280;69067;51.930;4.492;2023-07-13T07:15:13;101504.84;;;27.41;40.58
79589;BME280;69067;51.930;4.492;2023-07-13T07:17:39;101506.53;;;27.42;40.32
79589;BME280;69067;51.930;4.492;2023-07-13T07:20:05;101514.72;;;27.49;40.42
79589;BME280;69067;51.930;4.492;2023-07-13T07:22:33;101508.44;;;27.42;40.20
79589;BME280;69067;51.930;4.492;2023-07-13T07:24:59;101520.00;;;27.44;40.93
79589;BME280;69067;51.930;4.492;2023-07-13T07:27:25;101512.00;;;27.42;40.66
79589;BME280;69067;51.930;4.492;2023-07-13T07:29:51;101518.53;;;27.41;40.39
79589;BME280;69067;51.930;4.492;2023-07-13T07:32:16;101522.94;;;27.42;40.49
79589;BME280;69067;51.930;4.492;2023-07-13T07:34:43;101528.78;;;27.59;40.47
79589;BME280;69067;51.930;4.492;2023-07-13T07:37:13;101528.53;;;27.67;39.78
79589;BME280;69067;51.930;4.492;2023-07-13T07:39:39;101522.22;;;27.67;40.33
79589;BME280;69067;51.930;4.492;2023-07-13T07:42:05;101521.16;;;27.68;39.84
79589;BME280;69067;51.930;4.492;2023-07-13T07:44:32;101531.06;;;27.69;39.97
79589;BME280;69067;51.930;4.492;2023-07-13T07:46:59;101523.13;;;27.54;40.39
79589;BME280;69067;51.930;4.492;2023-07-13T07:49:25;101525.56;;;27.69;39.87
79589;BME280;69067;51.930;4.492;2023-07-13T07:51:51;101533.88;;;27.49;40.39
79589;BME280;69067;51.930;4.492;2023-07-13T07:54:17;101530.50;;;27.54;40.46
79589;BME280;69067;51.930;4.492;2023-07-13T07:56:43;101532.16;;;27.61;40.14
79589;BME280;69067;51.930;4.492;2023-07-13T07:59:09;101524.41;;;27.52;40.60
79589;BME280;69067;51.930;4.492;2023-07-13T08:01:36;101532.41;;;27.40;40.51
79589;BME280;69067;51.930;4.492;2023-07-13T08:04:02;101539.13;;;27.51;40.41
79589;BME280;69067;51.930;4.492;2023-07-13T08:06:28;101532.59;;;27.58;40.23
79589;BME280;69067;51.930;4.492;2023-07-13T08:08:55;101537.19;;;27.64;40.20
79589;BME280;69067;51.930;4.492;2023-07-13T08:11:22;101543.97;;;27.55;40.99
79589;BME280;69067;51.930;4.492;2023-07-13T08:13:49;101536.34;;;27.64;39.83
79589;BME280;69067;51.930;4.492;2023-07-13T08:16:16;101525.88;;;27.54;40.30
79589;BME280;69067;51.930;4.492;2023-07-13T08:18:41;101538.88;;;27.65;39.82
79589;BME280;69067;51.930;4.492;2023-07-13T08:21:08;101533.81;;;27.62;40.21
79589;BME280;69067;51.930;4.492;2023-07-13T08:23:35;101530.06;;;27.50;40.03
79589;BME280;69067;51.930;4.492;2023-07-13T08:26:02;101528.38;;;27.49;40.18
79589;BME280;69067;51.930;4.492;2023-07-13T08:28:30;101532.59;;;27.52;40.63
79589;BME280;69067;51.930;4.492;2023-07-13T08:31:03;101536.75;;;27.67;40.25
79589;BME280;69067;51.930;4.492;2023-07-13T08:33:29;101535.69;;;27.68;40.68
79589;BME280;69067;51.930;4.492;2023-07-13T08:35:55;101531.56;;;27.46;40.94
79589;BME280;69067;51.930;4.492;2023-07-13T08:38:22;101538.06;;;27.52;40.71
79589;BME280;69067;51.930;4.492;2023-07-13T08:40:54;101540.78;;;27.65;40.40
79589;BME280;69067;51.930;4.492;2023-07-13T08:43:29;101539.28;;;27.62;40.70
79589;BME280;69067;51.930;4.492;2023-07-13T08:54:10;101550.28;;;27.49;40.76
79589;BME280;69067;51.930;4.492;2023-07-13T08:56:39;101557.44;;;27.50;40.90
79589;BME280;69067;51.930;4.492;2023-07-13T08:59:19;101566.88;;;27.61;40.56
79589;BME280;69067;51.930;4.492;2023-07-13T09:02:06;101581.22;;;27.50;40.32
79589;BME280;69067;51.930;4.492;2023-07-13T09:04:59;101577.25;;;27.39;40.45
79589;BME280;69067;51.930;4.492;2023-07-13T09:10:25;101577.84;;;27.54;39.68
79589;BME280;69067;51.930;4.492;2023-07-13T09:16:10;101566.31;;;27.32;40.56
79589;BME280;69067;51.930;4.492;2023-07-13T09:18:51;101587.16;;;27.33;40.98
79589;BME280;69067;51.930;4.492;2023-07-13T09:21:30;101590.09;;;27.32;40.46
79589;BME280;69067;51.930;4.492;2023-07-13T09:27:27;101584.16;;;27.48;40.30
79589;BME280;69067;51.930;4.492;2023-07-13T09:32:52;101579.78;;;27.34;39.86
79589;BME280;69067;51.930;4.492;2023-07-13T09:35:23;101568.81;;;27.40;39.97
79589;BME280;69067;51.930;4.492;2023-07-13T09:37:58;101570.91;;;27.52;39.79
79589;BME280;69067;51.930;4.492;2023-07-13T09:40:38;101576.22;;;27.33;40.53
79589;BME280;69067;51.930;4.492;2023-07-13T09:43:14;101582.69;;;27.45;40.35
79589;BME280;69067;51.930;4.492;2023-07-13T09:45:45;101578.09;;;27.33;40.79
79589;BME280;69067;51.930;4.492;2023-07-13T09:48:14;101584.59;;;27.45;40.53
79589;BME280;69067;51.930;4.492;2023-07-13T09:50:42;101589.25;;;27.38;40.66
79589;BME280;69067;51.930;4.492;2023-07-13T09:53:17;101603.53;;;27.40;40.92
79589;BME280;69067;51.930;4.492;2023-07-13T09:55:47;101599.56;;;27.36;40.92
79589;BME280;69067;51.930;4.492;2023-07-13T09:58:21;101604.78;;;27.51;40.83
79589;BME280;69067;51.930;4.492;2023-07-13T10:01:00;101611.34;;;27.43;40.20
79589;BME280;69067;51.930;4.492;2023-07-13T10:03:33;101617.84;;;27.42;40.84
79589;BME280;69067;51.930;4.492;2023-07-13T10:06:29;101608.16;;;27.39;40.46
79589;BME280;69067;51.930;4.492;2023-07-13T10:08:56;101612.19;;;27.37;40.87
79589;BME280;69067;51.930;4.492;2023-07-13T10:11:27;101605.69;;;27.38;40.89
79589;BME280;69067;51.930;4.492;2023-07-13T10:14:00;101611.75;;;27.40;40.97
79589;BME280;69067;51.930;4.492;2023-07-13T10:16:35;101599.16;;;27.32;41.25
79589;BME280;69067;51.930;4.492;2023-07-13T10:19:24;101616.16;;;27.41;40.70
79589;BME280;69067;51.930;4.492;2023-07-13T10:22:02;101615.56;;;27.32;40.74
79589;BME280;69067;51.930;4.492;2023-07-13T10:24:39;101620.81;;;27.34;40.46
79589;BME280;69067;51.930;4.492;2023-07-13T10:27:33;101624.00;;;27.31;41.46
79589;BME280;69067;51.930;4.492;2023-07-13T10:32:52;101618.09;;;27.34;40.85
79589;BME280;69067;51.930;4.492;2023-07-13T10:35:20;101625.03;;;27.30;40.47
79589;BME280;69067;51.930;4.492;2023-07-13T10:38:06;101621.00;;;27.39;40.87
79589;BME280;69067;51.930;4.492;2023-07-13T10:40:40;101622.34;;;27.23;40.88
79589;BME280;69067;51.930;4.492;2023-07-13T10:43:18;101623.97;;;27.37;40.33
79589;BME280;69067;51.930;4.492;2023-07-13T10:45:48;101624.19;;;27.29;40.23
79589;BME280;69067;51.930;4.492;2023-07-13T10:48:18;101627.56;;;27.25;40.42
79589;BME280;69067;51.930;4.492;2023-07-13T10:50:49;101637.88;;;27.29;40.29
79589;BME280;69067;51.930;4.492;2023-07-13T10:53:29;101641.66;;;27.35;39.54
79589;BME280;69067;51.930;4.492;2023-07-13T11:03:35;101634.94;;;27.31;39.88
79589;BME280;69067;51.930;4.492;2023-07-13T11:09:30;101656.81;;;27.31;39.67
79589;BME280;69067;51.930;4.492;2023-07-13T11:22:46;101650.06;;;27.33;38.49
79589;BME280;69067;51.930;4.492;2023-07-13T11:25:27;101648.16;;;27.34;38.11
79589;BME280;69067;51.930;4.492;2023-07-13T11:33:28;101653.81;;;27.39;37.97
79589;BME280;69067;51.930;4.492;2023-07-13T11:36:19;101637.69;;;27.31;38.34
79589;BME280;69067;51.930;4.492;2023-07-13T11:42:05;101641.00;;;27.33;37.85
79589;BME280;69067;51.930;4.492;2023-07-13T11:44:34;101650.69;;;27.35;37.54
79589;BME280;69067;51.930;4.492;2023-07-13T11:47:10;101656.38;;;27.34;37.74
79589;BME280;69067;51.930;4.492;2023-07-13T11:49:45;101661.84;;;27.27;37.83
79589;BME280;69067;51.930;4.492;2023-07-13T11:52:18;101639.59;;;27.24;37.41
79589;BME280;69067;51.930;4.492;2023-07-13T11:54:57;101654.09;;;27.31;36.98
79589;BME280;69067;51.930;4.492;2023-07-13T11:57:29;101657.44;;;27.26;37.26
79589;BME280;69067;51.930;4.492;2023-07-13T12:00:03;101648.84;;;27.23;37.73
79589;BME280;69067;51.930;4.492;2023-07-13T12:02:40;101661.00;;;27.27;37.13
79589;BME280;69067;51.930;4.492;2023-07-13T12:05:17;101661.47;;;27.24;37.79
79589;BME280;69067;51.930;4.492;2023-07-13T12:07:44;101657.41;;;27.33;36.65
79589;BME280;69067;51.930;4.492;2023-07-13T12:10:23;101656.38;;;27.27;37.25
79589;BME280;69067;51.930;4.492;2023-07-13T12:13:02;101653.66;;;27.27;37.52
79589;BME280;69067;51.930;4.492;2023-07-13T12:15:43;101661.22;;;27.32;36.65
79589;BME280;69067;51.930;4.492;2023-07-13T12:18:21;101659.31;;;27.26;37.64
79589;BME280;69067;51.930;4.492;2023-07-13T12:20:50;101657.25;;;27.21;37.14
79589;BME280;69067;51.930;4.492;2023-07-13T12:23:29;101654.94;;;27.31;37.17
79589;BME280;69067;51.930;4.492;2023-07-13T12:25:59;101651.97;;;27.20;37.00
79589;BME280;69067;51.930;4.492;2023-07-13T12:28:37;101661.44;;;27.30;36.36
79589;BME280;69067;51.930;4.492;2023-07-13T12:31:18;101653.00;;;27.32;37.33
79589;BME280;69067;51.930;4.492;2023-07-13T12:33:59;101662.06;;;27.26;37.08
79589;BME280;69067;51.930;4.492;2023-07-13T12:36:35;101658.47;;;27.25;37.33
79589;BME280;69067;51.930;4.492;2023-07-13T12:45:21;101662.91;;;27.26;36.79
79589;BME280;69067;51.930;4.492;2023-07-13T12:47:57;101646.06;;;27.36;36.07
79589;BME280;69067;51.930;4.492;2023-07-13T12:50:48;101653.00;;;27.32;36.01
79589;BME280;69067;51.930;4.492;2023-07-13T12:53:21;101648.38;;;27.26;36.21
79589;BME280;69067;51.930;4.492;2023-07-13T12:55:56;101651.75;;;27.28;36.67
79589;BME280;69067;51.930;4.492;2023-07-13T12:58:28;101653.00;;;27.32;36.70
79589;BME280;69067;51.930;4.492;2023-07-13T13:01:08;101667.75;;;27.31;37.10
79589;BME280;69067;51.930;4.492;2023-07-13T13:03:51;101656.00;;;27.24;36.83
79589;BME280;69067;51.930;4.492;2023-07-13T13:08:49;101663.34;;;27.30;36.36
79589;BME280;69067;51.930;4.492;2023-07-13T13:11:18;101660.38;;;27.25;36.89
79589;BME280;69067;51.930;4.492;2023-07-13T13:13:46;101654.31;;;27.23;36.98
79589;BME280;69067;51.930;4.492;2023-07-13T13:16:34;101670.91;;;27.28;36.47
79589;BME280;69067;51.930;4.492;2023-07-13T13:19:14;101664.16;;;27.37;36.42
79589;BME280;69067;51.930;4.492;2023-07-13T13:21:43;101673.81;;;27.39;36.21
79589;BME280;69067;51.930;4.492;2023-07-13T13:24:19;101673.84;;;27.33;36.16
79589;BME280;69067;51.930;4.492;2023-07-13T13:26:49;101666.06;;;27.30;36.19
79589;BME280;69067;51.930;4.492;2023-07-13T13:29:20;101674.47;;;27.35;36.52
79589;BME280;69067;51.930;4.492;2023-07-13T13:31:52;101667.50;;;27.39;36.25
79589;BME280;69067;51.930;4.492;2023-07-13T13:34:19;101674.47;;;27.28;36.04
79589;BME280;69067;51.930;4.492;2023-07-13T13:36:49;101685.41;;;27.35;35.84
79589;BME280;69067;51.930;4.492;2023-07-13T13:39:28;101680.56;;;27.37;35.32
79589;BME280;69067;51.930;4.492;2023-07-13T13:41:58;101671.53;;;27.30;35.50
79589;BME280;69067;51.930;4.492;2023-07-13T13:44:23;101671.13;;;27.26;35.70
79589;BME280;69067;51.930;4.492;2023-07-13T13:46:55;101674.47;;;27.28;36.51
79589;BME280;69067;51.930;4.492;2023-07-13T13:49:24;101677.63;;;27.32;35.87
79589;BME280;69067;51.930;4.492;2023-07-13T13:51:52;101680.13;;;27.40;35.79
79589;BME280;69067;51.930;4.492;2023-07-13T13:54:20;101678.91;;;27.29;35.44
79589;BME280;69067;51.930;4.492;2023-07-13T13:56:49;101676.19;;;27.23;35.65
79589;BME280;69067;51.930;4.492;2023-07-13T13:59:16;101675.31;;;27.29;35.83
79589;BME280;69067;51.930;4.492;2023-07-13T14:01:45;101684.56;;;27.28;35.70
79589;BME280;69067;51.930;4.492;2023-07-13T14:04:21;101687.09;;;27.29;35.77
79589;BME280;69067;51.930;4.492;2023-07-13T14:06:49;101669.66;;;27.30;35.59